createdAt,value
2019-05-16T00:00:46.627Z,102373.47
2019-05-16T00:05:53.942Z,102374.00
2019-05-16T00:10:51.269Z,102370.70
2019-05-16T00:15:52.687Z,102365.66
2019-05-16T00:20:58.510Z,102359.03
2019-05-16T00:26:00.334Z,102361.47
2019-05-16T00:31:04.795Z,102358.77
2019-05-16T00:36:08.925Z,102356.08
2019-05-16T00:41:09.951Z,102351.16
2019-05-16T00:46:11.388Z,102349.05
2019-05-16T00:51:12.973Z,102344.20
2019-05-16T00:56:14.475Z,102344.73
2019-05-16T01:01:16.052Z,102350.09
2019-05-16T01:06:22.500Z,102342.94
2019-05-16T01:11:20.964Z,102337.12
2019-05-16T01:16:22.550Z,102343.77
2019-05-16T01:21:24.097Z,102343.88
2019-05-16T01:26:25.501Z,102344.38
2019-05-16T01:31:27.960Z,102336.03
2019-05-16T01:36:36.859Z,102336.13
2019-05-16T01:41:33.136Z,102338.53
2019-05-16T01:46:34.505Z,102334.11
2019-05-16T01:51:38.024Z,102331.80
2019-05-16T01:56:39.532Z,102329.88
2019-05-16T02:01:41.034Z,102328.66
2019-05-16T02:06:51.737Z,102315.26
2019-05-16T02:11:48.023Z,102311.43
2019-05-16T02:16:49.562Z,102315.86
2019-05-16T02:21:51.066Z,102315.05
2019-05-16T02:26:52.620Z,102316.73
2019-05-16T02:31:54.182Z,102315.92
2019-05-16T02:37:14.494Z,102312.30
2019-05-16T02:42:01.106Z,102309.86
2019-05-16T02:47:02.716Z,102309.41
2019-05-16T02:52:04.138Z,102308.89
2019-05-16T02:57:05.648Z,102299.48
2019-05-16T03:02:07.134Z,102296.87
2019-05-16T03:07:13.552Z,102294.95
2019-05-16T03:12:12.188Z,102287.19
2019-05-16T03:17:14.032Z,102288.16
2019-05-16T03:22:16.860Z,102278.56
2019-05-16T03:27:21.372Z,102273.02
2019-05-16T03:32:24.334Z,102265.65
2019-05-16T03:37:25.347Z,102263.34
2019-05-16T03:42:26.914Z,102261.59
2019-05-16T03:47:31.062Z,102258.94
2019-05-16T03:52:31.625Z,102254.88
2019-05-16T03:57:33.115Z,102256.49
2019-05-16T04:02:34.557Z,102252.82
2019-05-16T04:07:35.965Z,102253.37
2019-05-16T04:12:37.361Z,102248.27
2019-05-16T04:17:41.240Z,102260.93
2019-05-16T04:22:42.249Z,102252.44
2019-05-16T04:27:43.775Z,102260.48
2019-05-16T04:32:45.206Z,102265.19
2019-05-16T04:37:46.727Z,102263.66
2019-05-16T04:42:51.048Z,102258.95
2019-05-16T04:47:51.756Z,102264.41
2019-05-16T04:52:53.249Z,102265.42
2019-05-16T04:57:54.769Z,102262.73
2019-05-16T05:02:56.355Z,102255.50
2019-05-16T05:07:57.887Z,102256.11
2019-05-16T05:13:01.529Z,102258.24
2019-05-16T05:18:03.027Z,102263.47
2019-05-16T05:23:04.531Z,102258.51
2019-05-16T05:28:06.167Z,102258.80
2019-05-16T05:33:10.030Z,102257.50
2019-05-16T05:38:11.171Z,102246.73
2019-05-16T05:43:12.718Z,102244.96
2019-05-16T05:48:14.264Z,102244.53
2019-05-16T05:53:15.897Z,102241.19
2019-05-16T05:58:17.409Z,102240.48
2019-05-16T06:03:22.476Z,102240.75
2019-05-16T06:08:22.351Z,102240.70
2019-05-16T06:13:23.871Z,102226.02
2019-05-16T06:18:25.428Z,102228.47
2019-05-16T06:23:26.867Z,102227.52
2019-05-16T06:28:30.822Z,102215.69
2019-05-16T06:33:31.911Z,102210.09
2019-05-16T06:38:33.475Z,102215.06
2019-05-16T06:43:35.174Z,102208.64
2019-05-16T06:48:36.692Z,102202.81
2019-05-16T06:53:40.316Z,102202.30
2019-05-16T06:58:47.703Z,102200.64
2019-05-16T07:03:45.129Z,102191.50
2019-05-16T07:08:46.652Z,102185.02
2019-05-16T07:13:51.760Z,102185.95
2019-05-16T07:18:51.642Z,102175.47
2019-05-16T07:23:53.902Z,102169.98
2019-05-16T07:28:55.414Z,102165.35
2019-05-16T07:33:56.924Z,102155.71
2019-05-16T07:38:59.803Z,102150.05
2019-05-16T07:44:01.295Z,102144.52
2019-05-16T07:49:02.823Z,102143.28
2019-05-16T07:54:04.331Z,102137.95
2019-05-16T07:59:05.844Z,102133.58
2019-05-16T08:04:07.408Z,102129.00
2019-05-16T08:09:12.038Z,102133.89
2019-05-16T08:14:12.479Z,102125.64
2019-05-16T08:19:13.989Z,102112.91
2019-05-16T08:24:15.568Z,102116.83
2019-05-16T08:29:17.127Z,102119.48
2019-05-16T08:34:20.777Z,102106.88
2019-05-16T08:39:22.081Z,102109.66
2019-05-16T08:44:23.574Z,102106.55
2019-05-16T08:49:25.144Z,102091.86
2019-05-16T08:54:26.594Z,102089.77
2019-05-16T08:59:28.080Z,102080.92
2019-05-16T09:09:42.115Z,102075.89
2019-05-16T09:10:25.133Z,102074.42
2019-05-16T09:14:39.082Z,102070.37
2019-05-16T09:19:39.804Z,102058.08
2019-05-16T09:24:41.431Z,102061.38
2019-05-16T09:29:43.005Z,102060.96
2019-05-16T09:34:47.654Z,102054.08
2019-05-16T09:39:48.238Z,102050.25
2019-05-16T09:44:49.799Z,102045.41
2019-05-16T09:49:51.344Z,102048.62
2019-05-16T09:54:52.873Z,102051.52
2019-05-16T09:59:54.355Z,102040.92
2019-05-16T10:04:57.972Z,102041.73
2019-05-16T10:09:59.461Z,102039.52
2019-05-16T10:15:00.973Z,102037.63
2019-05-16T10:20:02.504Z,102033.09
2019-05-16T10:25:04.645Z,102035.30
2019-05-16T10:30:08.564Z,102019.05
2019-05-16T10:35:09.715Z,102007.55
2019-05-16T10:40:11.189Z,102004.66
2019-05-16T10:45:13.258Z,101995.97
2019-05-16T10:50:16.635Z,101983.94
2019-05-16T10:55:18.210Z,101972.31
2019-05-16T11:00:42.680Z,101970.89
2019-05-16T11:05:30.517Z,101972.33
2019-05-16T11:10:29.566Z,101963.62
2019-05-16T11:15:30.035Z,101959.19
2019-05-16T11:20:31.651Z,101955.58
2019-05-16T11:25:33.128Z,101956.80
2019-05-16T11:30:37.344Z,101960.13
2019-05-16T11:35:38.380Z,101950.66
2019-05-16T11:40:39.832Z,101951.10
2019-05-16T11:45:41.378Z,101938.89
2019-05-16T11:50:42.958Z,101934.74
2019-05-16T11:55:54.159Z,101941.83
2019-05-16T12:00:48.445Z,101934.96
2019-05-16T12:05:50.215Z,101925.52
2019-05-16T12:10:51.712Z,101918.19
2019-05-16T12:15:53.312Z,101905.73
2019-05-16T12:20:56.569Z,101889.65
2019-05-16T12:26:00.161Z,101886.34
2019-05-16T12:31:01.769Z,101878.94
2019-05-16T12:36:07.076Z,101869.20
2019-05-16T12:41:07.614Z,101861.10
2019-05-16T12:46:09.035Z,101851.66
2019-05-16T12:51:10.504Z,101835.62
2019-05-16T12:56:11.987Z,101838.23
2019-05-16T13:01:16.458Z,101819.50
2019-05-16T13:06:17.306Z,101813.72
2019-05-16T13:11:18.919Z,101801.25
2019-05-16T13:16:20.318Z,101792.80
2019-05-16T13:21:22.907Z,101783.73
2019-05-16T13:26:24.814Z,101776.58
2019-05-16T13:31:28.686Z,101769.02
2019-05-16T13:36:29.868Z,101759.66
2019-05-16T13:41:34.304Z,101754.30
2019-05-16T13:46:37.048Z,101739.85
2019-05-16T13:51:38.344Z,101738.97
2019-05-16T13:56:39.792Z,101724.78
2019-05-16T14:01:41.341Z,101705.27
2019-05-16T14:06:42.754Z,101697.70
2019-05-16T14:11:46.355Z,101693.69
2019-05-16T14:16:47.895Z,101681.63
2019-05-16T14:21:49.422Z,101670.00
2019-05-16T14:26:50.930Z,101660.63
2019-05-16T14:31:52.443Z,101648.13
2019-05-16T14:36:54.110Z,101645.89
2019-05-16T14:41:56.805Z,101643.26
2019-05-16T14:46:58.469Z,101640.11
2019-05-16T14:51:59.932Z,101631.44
2019-05-16T14:57:01.979Z,101625.38
2019-05-16T15:02:03.756Z,101608.91
2019-05-16T15:07:06.965Z,101606.48
2019-05-16T15:12:08.726Z,101608.38
2019-05-16T15:17:10.304Z,101598.61
2019-05-16T15:22:12.029Z,101598.00
2019-05-16T15:27:13.463Z,101590.75
2019-05-16T15:32:17.524Z,101585.40
2019-05-16T15:37:18.562Z,101584.06
2019-05-16T15:42:20.056Z,101584.47
2019-05-16T15:47:21.488Z,101578.45
2019-05-16T15:52:23.027Z,101567.03
2019-05-16T15:57:26.783Z,101562.59
2019-05-16T16:02:28.203Z,101553.20
2019-05-16T16:07:30.551Z,101555.36
2019-05-16T16:12:32.043Z,101550.22
2019-05-16T16:17:33.465Z,101541.80
2019-05-16T16:22:37.531Z,101535.66
2019-05-16T16:27:38.116Z,101521.41
2019-05-16T16:32:39.483Z,101511.58
2019-05-16T16:37:40.757Z,101497.84
2019-05-16T16:42:43.082Z,101503.94
2019-05-16T16:47:46.806Z,101501.00
2019-05-16T16:52:47.616Z,101508.73
2019-05-16T16:57:48.885Z,101500.27
2019-05-16T17:03:01.998Z,101492.66
2019-05-16T17:07:53.505Z,101481.88
2019-05-16T17:12:57.391Z,101483.00
2019-05-16T17:17:58.050Z,101473.95
2019-05-16T17:22:59.438Z,101456.63
2019-05-16T17:28:00.871Z,101459.15
2019-05-16T17:33:02.100Z,101448.62
2019-05-16T17:38:03.681Z,101442.83
2019-05-16T17:43:07.350Z,101444.96
2019-05-16T17:48:08.700Z,101434.38
2019-05-16T17:53:10.202Z,101427.50
2019-05-16T17:58:11.835Z,101426.91
2019-05-16T18:03:13.356Z,101430.41
2019-05-16T18:08:14.876Z,101433.87
2019-05-16T18:13:16.493Z,101425.91
2019-05-16T18:18:18.130Z,101411.42
2019-05-16T18:23:19.651Z,101415.58
2019-05-16T18:28:21.266Z,101417.21
2019-05-16T18:33:24.559Z,101419.72
2019-05-16T18:38:26.580Z,101417.59
2019-05-16T18:43:28.482Z,101418.77
2019-05-16T18:48:29.979Z,101417.41
2019-05-16T18:53:31.509Z,101417.25
2019-05-16T18:58:33.051Z,101430.00
2019-05-16T19:03:34.678Z,101423.98
2019-05-16T19:08:36.503Z,101425.69
2019-05-16T19:13:38.091Z,101414.41
2019-05-16T19:18:39.657Z,101413.08
2019-05-16T19:23:41.272Z,101412.92
2019-05-16T19:28:42.920Z,101408.21
2019-05-16T19:33:48.577Z,101417.38
2019-05-16T19:38:48.419Z,101413.37
2019-05-16T19:43:50.100Z,101419.50
2019-05-16T19:48:51.641Z,101417.05
2019-05-16T19:53:53.308Z,101426.94
2019-05-16T19:58:56.773Z,101429.66
2019-05-16T20:03:58.394Z,101432.47
2019-05-16T20:09:01.002Z,101426.09
2019-05-16T20:14:02.666Z,101422.27
2019-05-16T20:19:04.207Z,101423.73
2019-05-16T20:24:07.459Z,101435.77
2019-05-16T20:29:09.240Z,101429.96
2019-05-16T20:34:10.844Z,101425.70
2019-05-16T20:39:12.241Z,101422.34
2019-05-16T20:44:13.733Z,101420.90
2019-05-16T20:49:16.777Z,101423.13
2019-05-16T20:54:18.436Z,101420.63
2019-05-16T20:59:19.973Z,101417.63
2019-05-16T21:04:21.481Z,101405.45
2019-05-16T21:09:26.179Z,101407.06
2019-05-16T21:14:27.385Z,101407.90
2019-05-16T21:19:28.792Z,101403.91
2019-05-16T21:24:30.294Z,101391.92
2019-05-16T21:29:31.721Z,101386.96
2019-05-16T21:34:33.233Z,101380.13
2019-05-16T21:39:36.814Z,101379.42
2019-05-16T21:44:38.203Z,101369.80
2019-05-16T21:49:39.712Z,101366.11
2019-05-16T21:54:41.270Z,101359.83
2019-05-16T21:59:42.866Z,101351.39
2019-05-16T22:04:44.440Z,101342.64
2019-05-16T22:09:46.631Z,101342.77
2019-05-16T22:14:50.102Z,101329.95
2019-05-16T22:19:51.609Z,101326.70
2019-05-16T22:24:53.147Z,101318.81
2019-05-16T22:29:56.617Z,101311.89
2019-05-16T22:34:59.950Z,101308.52
2019-05-16T22:40:01.585Z,101298.11
2019-05-16T22:45:03.190Z,101294.22
2019-05-16T22:50:07.323Z,101289.26
2019-05-16T22:55:08.490Z,101286.23
2019-05-16T23:00:10.026Z,101277.83
2019-05-16T23:05:11.586Z,101280.56
2019-05-16T23:10:13.383Z,101270.55
2019-05-16T23:15:17.110Z,101262.22
2019-05-16T23:20:18.526Z,101267.58
2019-05-16T23:25:20.010Z,101260.28
2019-05-16T23:30:21.557Z,101254.06
2019-05-16T23:35:23.063Z,101243.56
2019-05-16T23:40:24.584Z,101245.30
2019-05-16T23:45:27.512Z,101239.63
2019-05-16T23:50:29.186Z,101235.20
2019-05-16T23:55:32.704Z,101229.08
